• Join FlightAware (Why Join?)
  • Login
  • US Flag 
12:27PM EDT


 

Airport Tracker/Info


-or-


 

Live Flight TrackerFlight Track Log ✈ GTI37 ✈ 17-Oct-2013 ✈ KMIA - SBEG / MAO

Flight Track Log - Related Links

Times and Time Zones

All times are in EDT time to prevent confusion due to time zone crossing. See the GTI37 flight status page for this flight to view local times or setup timezone preferences in your user account.

Time Position Orientation Groundspeed Altitude Reporting Facility
EDT Latitude Longitude Course Direction KTS MPH feet Rate Location/Type
09:13AM 25.7860 -80.3060 138° Southeast 115 132  Level FlightAware
09:13AM 25.7870 -80.2920 85° East 175 201 1,440 Level FlightAware
09:14AM 25.7830 -80.2650 99° East 171 197 1,200 1,920 Climbing FlightAware
09:14AM 25.7760 -80.2480 115° Southeast 194 223 1,700 1,320 Climbing FlightAware
09:15AM 25.7680 -80.2280 114° Southeast 228 262 2,100 1,200 Climbing FlightAware
09:15AM 25.7580 -80.2050 116° Southeast 256 295 2,500 1,800 Climbing FlightAware
09:15AM 25.7470 -80.1810 117° Southeast 267 307 3,300 2,640 Climbing FlightAware
09:15AM 25.7420 -80.1710 119° Southeast 272 313 3,700 2,700 Climbing FlightAware
09:16AM 25.7240 -80.1470 130° Southeast 277 319 4,800 3,060 Climbing FlightAware
09:16AM 25.7080 -80.1210 124° Southeast 281 323 6,000 3,180 Climbing FlightAware
09:16AM 25.6940 -80.0990 125° Southeast 288 331 6,900 2,880 Climbing FlightAware
09:17AM 25.6860 -80.0890 132° Southeast 291 335 7,300 2,760 Climbing FlightAware
09:17AM 25.6790 -80.0830 142° Southeast 292 336 7,600 3,000 Climbing FlightAware
09:17AM 25.6620 -80.0740 154° Southeast 294 338 8,300 3,120 Climbing FlightAware
09:17AM 25.6530 -80.0710 163° South 295 339 8,700 3,000 Climbing FlightAware
09:17AM 25.6260 -80.0640 167° South 296 341 9,700 2,220 Climbing FlightAware
09:18AM 25.5750 -80.0520 168° South 322 371 10,800 1,440 Climbing FlightAware
09:19AM 25.5220 -80.0400 168° South 362 417 11,400 1,260 Climbing FlightAware
09:19AM 25.4620 -80.0260 168° South 394 453 12,300 1,740 Climbing FlightAware
09:20AM 25.4120 -80.0140 168° South 398 458 13,300 2,280 Climbing FlightAware
09:20AM 25.3480 -79.9990 168° South 409 471 14,700 2,340 Climbing FlightAware
09:21AM 25.2920 -79.9800 163° South 422 486 15,800 2,040 Climbing FlightAware
09:21AM 25.2270 -79.9370 149° Southeast 427 491 17,100 2,040 Climbing FlightAware
09:22AM 25.1650 -79.8920 147° Southeast 439 505 18,400 2,220 Climbing FlightAware
09:22AM 25.1050 -79.8490 147° Southeast 444 511 19,700 1,320 Climbing FlightAware
09:23AM 25.0390 -79.8010 147° Southeast 448 516 20,200 1,320 Climbing FlightAware
09:24AM 24.9470 -79.7360 147° Southeast 459 528 21,900 1,140 Climbing FlightAware
09:25AM 24.8930 -79.6960 146° Southeast 459 528 21,900 2,520 Level FlightAware
09:25AM 24.8160 -79.6860 173° South 914 1052 24,300 3,720 Climbing FlightAware
09:26AM 24.7260 -79.6460 158° South 502 578 25,500 1,020 Climbing FlightAware
09:26AM 24.6450 -79.6080 157° South 502 578 25,700 120 Climbing FlightAware
09:27AM 24.5790 -79.5780 158° South 502 578 25,700  Level FlightAware
09:28AM 24.5140 -79.5470 157° South 502 578 25,700  Level FlightAware
09:28AM 24.4490 -79.5170 157° South 502 578 25,700  Level FlightAware
09:29AM 24.3830 -79.4860 157° South 502 578 25,700  Level FlightAware
09:29AM 24.3180 -79.4560 157° South 502 578 25,700 4,200 Level FlightAware
09:31AM 24.1089 -79.2697 157° South 495 570 34,500 3,720 Climbing Miami Center
09:32AM 23.9872 -79.1764 145° Southeast 495 570 35,000  Climbing Miami Center
09:34AM 23.8212 -79.0209 139° Southeast  Level FlightAware Approximate
09:41AM 23.0953 -78.4076 142° Southeast  Level FlightAware Approximate
09:42AM 22.9917 -78.3202 142° Southeast  Level FlightAware Approximate
09:43AM 22.8881 -78.2330 142° Southeast  Level FlightAware Approximate
09:44AM 22.7844 -78.1459 142° Southeast  Level FlightAware Approximate
09:45AM 22.6806 -78.0589 142° Southeast  Level FlightAware Approximate
09:46AM 22.5768 -77.9720 142° Southeast  Level FlightAware Approximate
09:47AM 22.4730 -77.8853 142° Southeast  Level FlightAware Approximate
09:48AM 22.3691 -77.7987 142° Southeast  Level FlightAware Approximate
09:49AM 22.2652 -77.7122 142° Southeast  Level FlightAware Approximate
09:50AM 22.1612 -77.6259 142° Southeast  Level FlightAware Approximate
09:51AM 22.0572 -77.5397 142° Southeast  Level FlightAware Approximate
09:52AM 21.9531 -77.4536 142° Southeast  Level FlightAware Approximate
09:53AM 21.8490 -77.3676 143° Southeast  Level FlightAware Approximate
09:54AM 21.7449 -77.2818 143° Southeast  Level FlightAware Approximate
09:55AM 21.6407 -77.1961 143° Southeast  Level FlightAware Approximate
09:56AM 21.5364 -77.1105 143° Southeast  Level FlightAware Approximate
09:57AM 21.4322 -77.0251 143° Southeast  Level FlightAware Approximate
09:58AM 21.3278 -76.9397 143° Southeast  Level FlightAware Approximate
09:59AM 21.2235 -76.8545 143° Southeast  Level FlightAware Approximate
10:00AM 21.1191 -76.7694 143° Southeast  Level FlightAware Approximate
10:01AM 21.0146 -76.6844 143° Southeast  Level FlightAware Approximate
10:02AM 20.9101 -76.5996 143° Southeast  Level FlightAware Approximate
10:03AM 20.8056 -76.5148 143° Southeast  Level FlightAware Approximate
10:04AM 20.6999 -76.4318 144° Southeast  Level FlightAware Approximate
10:05AM 20.5936 -76.3498 144° Southeast  Level FlightAware Approximate
10:06AM 20.4872 -76.2679 144° Southeast  Level FlightAware Approximate
10:07AM 20.3808 -76.1861 144° Southeast  Level FlightAware Approximate
10:08AM 20.2743 -76.1044 144° Southeast  Level FlightAware Approximate
10:09AM 20.1679 -76.0228 144° Southeast  Level FlightAware Approximate
10:10AM 20.0613 -75.9414 144° Southeast  Level FlightAware Approximate
10:11AM 19.9548 -75.8600 144° Southeast  Level FlightAware Approximate
10:12AM 19.8482 -75.7788 144° Southeast  Level FlightAware Approximate
10:13AM 19.7415 -75.6976 144° Southeast  Level FlightAware Approximate
10:14AM 19.6348 -75.6166 144° Southeast  Level FlightAware Approximate
10:15AM 19.5281 -75.5357 144° Southeast  Level FlightAware Approximate
10:16AM 19.4214 -75.4549 144° Southeast  Level FlightAware Approximate
10:17AM 19.3146 -75.3742 145° Southeast  Level FlightAware Approximate
10:18AM 19.2078 -75.2936 145° Southeast  Level FlightAware Approximate
10:19AM 19.1009 -75.2131 145° Southeast  Level FlightAware Approximate
10:20AM 18.9940 -75.1328 145° Southeast  Level FlightAware Approximate
10:21AM 18.8871 -75.0525 145° Southeast  Level FlightAware Approximate
10:22AM 18.7801 -74.9723 145° Southeast  Level FlightAware Approximate
10:23AM 18.6731 -74.8922 145° Southeast  Level FlightAware Approximate
10:24AM 18.5663 -74.8121 144° Southeast  Level FlightAware Approximate
10:25AM 18.4595 -74.7318 145° Southeast  Level FlightAware Approximate
10:26AM 18.3526 -74.6516 145° Southeast  Level FlightAware Approximate
10:27AM 18.2458 -74.5715 145° Southeast  Level FlightAware Approximate
10:28AM 18.1389 -74.4915 145° Southeast  Level FlightAware Approximate
10:29AM 18.0320 -74.4117 145° Southeast  Level FlightAware Approximate
10:30AM 17.9250 -74.3320 145° Southeast  Level FlightAware Approximate
10:31AM 17.8179 -74.2523 145° Southeast  Level FlightAware Approximate
10:32AM 17.7109 -74.1728 145° Southeast  Level FlightAware Approximate
10:33AM 17.6038 -74.0934 145° Southeast  Level FlightAware Approximate
10:34AM 17.4966 -74.0140 145° Southeast  Level FlightAware Approximate
10:35AM 17.3895 -73.9348 145° Southeast  Level FlightAware Approximate
10:36AM 17.2823 -73.8557 145° Southeast  Level FlightAware Approximate
10:37AM 17.1751 -73.7766 145° Southeast  Level FlightAware Approximate
10:38AM 17.0678 -73.6976 145° Southeast  Level FlightAware Approximate
10:39AM 16.9605 -73.6187 145° Southeast  Level FlightAware Approximate
10:40AM 16.8532 -73.5399 145° Southeast  Level FlightAware Approximate
10:41AM 16.7459 -73.4613 145° Southeast  Level FlightAware Approximate
10:42AM 16.6385 -73.3827 145° Southeast  Level FlightAware Approximate
10:43AM 16.5312 -73.3040 145° Southeast  Level FlightAware Approximate
10:44AM 16.4239 -73.2254 145° Southeast  Level FlightAware Approximate
10:45AM 16.3165 -73.1469 145° Southeast  Level FlightAware Approximate
10:46AM 16.2091 -73.0684 145° Southeast  Level FlightAware Approximate
10:47AM 16.1017 -72.9901 145° Southeast  Level FlightAware Approximate
10:48AM 15.9943 -72.9118 145° Southeast  Level FlightAware Approximate
10:49AM 15.8869 -72.8336 145° Southeast  Level FlightAware Approximate
10:50AM 15.7794 -72.7555 145° Southeast  Level FlightAware Approximate
10:51AM 15.6718 -72.6775 145° Southeast  Level FlightAware Approximate
10:52AM 15.5643 -72.5996 145° Southeast  Level FlightAware Approximate
10:53AM 15.4567 -72.5218 145° Southeast  Level FlightAware Approximate
10:54AM 15.3491 -72.4440 145° Southeast  Level FlightAware Approximate
10:55AM 15.2415 -72.3663 145° Southeast  Level FlightAware Approximate
10:56AM 15.1339 -72.2887 145° Southeast  Level FlightAware Approximate
10:57AM 15.0262 -72.2112 145° Southeast  Level FlightAware Approximate
10:58AM 14.9185 -72.1337 145° Southeast  Level FlightAware Approximate
10:59AM 14.8107 -72.0563 145° Southeast  Level FlightAware Approximate
10:59AM 13.9090 -72.3520 145° Southeast 500 575 35,000  Level FlightAware
10:59AM 13.8460 -72.2960 139° Southeast 499 574 35,000  Level FlightAware
11:00AM 13.7940 -72.2460 137° Southeast 497 572 35,000  Level FlightAware
11:00AM 13.7270 -72.1800 136° Southeast 490 564 35,000  Level FlightAware
11:01AM 13.6770 -72.1320 137° Southeast 488 562 35,000  Level FlightAware
11:01AM 13.6170 -72.0750 137° Southeast 489 563 35,000  Level FlightAware
11:02AM 13.5680 -72.0280 137° Southeast 488 562 35,000  Level FlightAware
11:03AM 13.5030 -71.9660 137° Southeast 487 560 35,000  Level FlightAware
11:04AM 13.4090 -71.8780 138° Southeast 487 560 35,000  Level FlightAware
11:04AM 13.3560 -71.8250 136° Southeast 485 558 35,000  Level FlightAware
11:05AM 13.3050 -71.7780 138° Southeast 489 563 35,000  Level FlightAware
11:05AM 13.2220 -71.7000 138° Southeast 492 566 35,000  Level FlightAware
11:06AM 13.1650 -71.6460 137° Southeast 493 567 35,000  Level FlightAware
11:07AM 13.1060 -71.5880 136° Southeast 493 567 35,000  Level FlightAware
11:07AM 13.0380 -71.5230 137° Southeast 493 567 35,000  Level FlightAware
11:08AM 12.9590 -71.4500 138° Southeast 492 566 35,000  Level FlightAware
11:09AM 12.8990 -71.3940 138° Southeast 492 566 35,000  Level FlightAware
11:09AM 12.8310 -71.3290 137° Southeast 490 564 35,000  Level FlightAware
11:10AM 12.7790 -71.2800 137° Southeast 488 562 35,000  Level FlightAware
11:10AM 12.7130 -71.2170 137° Southeast 485 558 35,000  Level FlightAware
11:11AM 12.6530 -71.1610 138° Southeast 485 558 35,000  Level FlightAware
11:12AM 12.6100 -71.1180 136° Southeast 484 557 35,000  Level FlightAware
11:12AM 12.5370 -71.0510 138° Southeast 483 556 35,000  Level FlightAware
11:13AM 12.4770 -71.0010 141° Southeast 487 560 35,000  Level FlightAware
11:13AM 12.4110 -70.9540 145° Southeast 486 559 35,000  Level FlightAware
11:14AM 12.3470 -70.9100 146° Southeast 488 562 35,000  Level FlightAware
11:15AM 12.2800 -70.8630 146° Southeast 488 562 35,000  Level FlightAware
11:15AM 12.2150 -70.8180 146° Southeast 489 563 35,000  Level FlightAware
11:16AM 12.1580 -70.7780 146° Southeast 489 563 35,000  Level FlightAware
11:16AM 12.0820 -70.7260 146° Southeast 489 563 35,000 120 Level FlightAware
11:17AM 12.0160 -70.6800 146° Southeast 487 560 35,200 660 Climbing FlightAware
11:17AM 11.9510 -70.6340 145° Southeast 491 565 35,800 840 Climbing FlightAware
11:18AM 11.8840 -70.5880 146° Southeast 487 560 36,200 720 Climbing FlightAware
11:19AM 11.8260 -70.5480 146° Southeast 488 562 36,600 480 Climbing FlightAware
11:19AM 11.7520 -70.4960 145° Southeast 487 560 36,800 240 Climbing FlightAware
11:20AM 11.7030 -70.4630 147° Southeast 487 560 36,900 120 Climbing FlightAware
11:20AM 11.6190 -70.4040 145° Southeast 492 566 37,000 60 Climbing FlightAware
11:21AM 11.5520 -70.3580 146° Southeast 491 565 37,000  Level FlightAware
11:22AM 11.4870 -70.3130 146° Southeast 489 563 37,000  Level FlightAware
11:22AM 11.4300 -70.2740 146° Southeast 487 560 37,000  Level FlightAware
11:23AM 11.3660 -70.2290 145° Southeast 487 560 37,000  Level FlightAware
11:23AM 11.2910 -70.1780 146° Southeast 486 559 37,000  Level FlightAware
11:24AM 11.2250 -70.1320 146° Southeast 485 558 37,000  Level FlightAware
11:24AM 11.1680 -70.0930 146° Southeast 483 556 37,000  Level FlightAware
11:25AM 11.1030 -70.0480 146° Southeast 482 555 37,000  Level FlightAware
11:26AM 11.0380 -70.0040 146° Southeast 474 545 37,000  Level FlightAware
11:26AM 10.9650 -69.9540 146° Southeast 473 544 37,000  Level FlightAware
11:27AM 10.9090 -69.9150 146° Southeast 473 544 37,000  Level FlightAware
11:27AM 10.8440 -69.8710 146° Southeast 473 544 37,000  Level FlightAware
11:28AM 10.7790 -69.8260 146° Southeast 472 543 37,000  Level FlightAware
11:28AM 10.7140 -69.7810 146° Southeast 469 540 37,000  Level FlightAware
11:29AM 10.6490 -69.7370 146° Southeast 467 537 37,000  Level FlightAware
11:30AM 10.5790 -69.6890 146° Southeast 472 543 37,000  Level FlightAware
11:30AM 10.5020 -69.6360 146° Southeast 473 544 37,000  Level FlightAware
11:31AM 10.4420 -69.5950 146° Southeast 474 545 37,000  Level FlightAware
11:32AM 10.3780 -69.5510 146° Southeast 475 547 37,000  Level FlightAware
11:32AM 10.3170 -69.5100 147° Southeast 475 547 37,000  Level FlightAware
11:33AM 10.2470 -69.4610 145° Southeast 476 548 37,000  Level FlightAware
11:33AM 10.1840 -69.4200 147° Southeast 476 548 37,000  Level FlightAware
11:34AM 10.1180 -69.3800 149° Southeast 476 548 37,000  Level FlightAware
11:35AM 10.0420 -69.3340 149° Southeast 470 541 37,000  Level FlightAware
11:35AM 9.9930 -69.3040 149° Southeast 470 541 37,000  Level FlightAware
11:36AM 9.9250 -69.2720 155° Southeast 469 540 37,000  Level FlightAware
11:36AM 9.8400 -69.2400 160° South 476 548 37,000  Level FlightAware
11:37AM 9.7670 -69.2130 160° South 470 541 37,000  Level FlightAware
11:37AM 9.7170 -69.1870 153° Southeast 477 549 37,000  Level FlightAware
11:38AM 9.6670 -69.1520 145° Southeast 471 542 37,000  Level FlightAware
11:38AM 9.5910 -69.0910 142° Southeast 475 547 37,000  Level FlightAware
11:39AM 9.5130 -69.0230 139° Southeast 467 537 37,000  Level FlightAware
11:40AM 9.4380 -68.9600 140° Southeast 473 544 37,000  Level FlightAware
11:41AM 9.3830 -68.9120 139° Southeast 474 545 37,000  Level FlightAware
11:41AM 9.3280 -68.8640 139° Southeast 473 544 37,000  Level FlightAware
11:42AM 9.2450 -68.7910 139° Southeast 473 544 37,000  Level FlightAware
11:43AM 9.2840 -68.8260 318° Northwest 473 544 37,000  Level FlightAware
11:43AM 9.1150 -68.6740 138° Southeast 472 543 37,000  Level FlightAware
11:44AM 9.0660 -68.6270 137° Southeast 472 543 37,000  Level FlightAware
11:45AM 8.9620 -68.5260 136° Southeast 470 541 37,000  Level FlightAware
11:45AM 8.9100 -68.4730 135° Southeast 471 542 37,000  Level FlightAware
11:46AM 8.8660 -68.4290 135° Southeast 472 543 37,000  Level FlightAware
11:47AM 8.8070 -68.3680 134° Southeast 471 542 37,000  Level FlightAware
11:47AM 8.7520 -68.3130 135° Southeast 471 542 37,000  Level FlightAware
11:48AM 8.6860 -68.2380 132° Southeast 473 544 37,000  Level FlightAware
11:48AM 8.6540 -68.1790 119° Southeast 476 548 37,000  Level FlightAware
11:49AM 8.6110 -68.0980 118° Southeast 476 548 37,000  Level FlightAware
11:50AM 8.5770 -68.0330 118° Southeast 477 549 37,000  Level FlightAware
11:50AM 8.5320 -67.9310 114° Southeast 481 554 37,000  Level FlightAware
11:51AM 8.5050 -67.8640 112° Southeast 481 554 37,000  Level FlightAware
11:52AM 8.4790 -67.8040 114° Southeast 485 558 37,000  Level FlightAware
11:52AM 8.4430 -67.7170 113° Southeast 484 557 37,000  Level FlightAware
11:53AM 8.4160 -67.6500 112° Southeast 486 559 37,000  Level FlightAware
11:54AM 8.3830 -67.5690 112° Southeast 487 560 37,000  Level FlightAware
11:54AM 8.3570 -67.5040 112° Southeast 487 560 37,000 -60 Level FlightAware
11:57AM 8.0942 -67.3290 147° Southeast  Level FlightAware Approximate
11:58AM 7.9847 -67.2561 147° Southeast  Level FlightAware Approximate
11:59AM 7.8752 -67.1833 147° Southeast  Level FlightAware Approximate
12:00PM 7.7656 -67.1105 147° Southeast  Level FlightAware Approximate
12:01PM 7.6560 -67.0378 147° Southeast  Level FlightAware Approximate
12:02PM 7.5465 -66.9651 147° Southeast  Level FlightAware Approximate
12:03PM 7.4369 -66.8924 147° Southeast  Level FlightAware Approximate
12:04PM 7.3273 -66.8198 147° Southeast  Level FlightAware Approximate
12:05PM 7.2177 -66.7472 147° Southeast  Level FlightAware Approximate
12:06PM 7.1081 -66.6747 147° Southeast  Level FlightAware Approximate
12:07PM 6.9984 -66.6021 147° Southeast  Level FlightAware Approximate
12:08PM 6.8888 -66.5297 147° Southeast  Level FlightAware Approximate
12:09PM 6.7792 -66.4572 147° Southeast  Level FlightAware Approximate
12:10PM 6.6695 -66.3848 147° Southeast  Level FlightAware Approximate
12:11PM 6.5598 -66.3124 147° Southeast  Level FlightAware Approximate
12:12PM 6.4501 -66.2400 147° Southeast  Level FlightAware Approximate
12:13PM 6.3404 -66.1677 147° Southeast  Level FlightAware Approximate
12:14PM 6.2308 -66.0954 147° Southeast  Level FlightAware Approximate
12:15PM 6.1210 -66.0231 147° Southeast  Level FlightAware Approximate
12:16PM 6.0113 -65.9509 147° Southeast  Level FlightAware Approximate
12:17PM 5.9016 -65.8787 147° Southeast  Level FlightAware Approximate
12:18PM 5.7919 -65.8065 147° Southeast  Level FlightAware Approximate
12:19PM 5.6821 -65.7344 147° Southeast  Level FlightAware Approximate
12:20PM 5.5723 -65.6622 147° Southeast  Level FlightAware Approximate
12:21PM 5.4626 -65.5902 147° Southeast  Level FlightAware Approximate
12:22PM 5.3528 -65.5181 147° Southeast  Level FlightAware Approximate
12:23PM 5.2430 -65.4461 147° Southeast  Level FlightAware Approximate
12:24PM 5.1332 -65.3740 147° Southeast  Level FlightAware Approximate
12:25PM 5.0234 -65.3020 147° Southeast  Level FlightAware Approximate
12:26PM 4.9136 -65.2301 147° Southeast  Level FlightAware Approximate
12:27PM 4.8038 -65.1581 147° Southeast  Level FlightAware Approximate
12:28PM 4.6940 -65.0862 147° Southeast  Level FlightAware Approximate
12:29PM 4.5841 -65.0143 147° Southeast  Level FlightAware Approximate
12:30PM 4.4743 -64.9424 147° Southeast  Level FlightAware Approximate
12:31PM 4.3644 -64.8706 147° Southeast  Level FlightAware Approximate
12:32PM 4.2546 -64.7987 147° Southeast  Level FlightAware Approximate
12:33PM 4.1447 -64.7269 147° Southeast  Level FlightAware Approximate
12:34PM 4.0349 -64.6551 147° Southeast  Level FlightAware Approximate
12:35PM 3.9250 -64.5834 147° Southeast  Level FlightAware Approximate
12:36PM 3.8151 -64.5116 147° Southeast  Level FlightAware Approximate
12:37PM 3.7052 -64.4399 147° Southeast  Level FlightAware Approximate
12:38PM 3.5954 -64.3681 147° Southeast  Level FlightAware Approximate
12:39PM 3.4855 -64.2964 147° Southeast  Level FlightAware Approximate
12:40PM 3.3756 -64.2248 147° Southeast  Level FlightAware Approximate
12:41PM 3.2656 -64.1531 147° Southeast  Level FlightAware Approximate
12:42PM 3.1557 -64.0814 147° Southeast  Level FlightAware Approximate
12:43PM 3.0458 -64.0098 147° Southeast  Level FlightAware Approximate
12:44PM 2.9359 -63.9382 147° Southeast  Level FlightAware Approximate
12:45PM 2.8260 -63.8666 147° Southeast  Level FlightAware Approximate
12:46PM 2.7160 -63.7950 147° Southeast  Level FlightAware Approximate
12:47PM 2.6061 -63.7234 147° Southeast  Level FlightAware Approximate
12:48PM 2.4962 -63.6518 147° Southeast  Level FlightAware Approximate
12:49PM 2.3862 -63.5803 147° Southeast  Level FlightAware Approximate
12:50PM 2.2763 -63.5087 147° Southeast  Level FlightAware Approximate
12:51PM 2.1663 -63.4372 147° Southeast  Level FlightAware Approximate
12:52PM 2.0564 -63.3656 147° Southeast  Level FlightAware Approximate
12:53PM 1.9464 -63.2941 147° Southeast  Level FlightAware Approximate
12:54PM 1.8364 -63.2226 147° Southeast  Level FlightAware Approximate
12:55PM 1.7265 -63.1511 147° Southeast  Level FlightAware Approximate
12:56PM 1.6165 -63.0796 147° Southeast  Level FlightAware Approximate
12:57PM 1.5065 -63.0081 147° Southeast  Level FlightAware Approximate
12:58PM 1.3966 -62.9367 147° Southeast  Level FlightAware Approximate
12:59PM 1.2866 -62.8652 147° Southeast  Level FlightAware Approximate
01:00PM 1.1766 -62.7937 147° Southeast  Level FlightAware Approximate
01:01PM 1.0667 -62.7223 147° Southeast  Level FlightAware Approximate
01:02PM 0.9567 -62.6508 147° Southeast  Level FlightAware Approximate
01:03PM 0.8467 -62.5794 147° Southeast  Level FlightAware Approximate
01:04PM 0.7367 -62.5079 147° Southeast  Level FlightAware Approximate
01:05PM 0.6267 -62.4365 147° Southeast  Level FlightAware Approximate
01:06PM 0.5168 -62.3651 147° Southeast  Level FlightAware Approximate
01:07PM 0.4068 -62.2936 147° Southeast  Level FlightAware Approximate
01:08PM 0.2968 -62.2222 147° Southeast  Level FlightAware Approximate
01:09PM 0.1868 -62.1508 147° Southeast  Level FlightAware Approximate
01:10PM 0.0768 -62.0793 147° Southeast  Level FlightAware Approximate
01:11PM -0.0332 -62.0079 147° Southeast  Level FlightAware Approximate
01:12PM -0.1432 -61.9365 147° Southeast  Level FlightAware Approximate
01:13PM -0.2531 -61.8651 147° Southeast  Level FlightAware Approximate
01:14PM -0.3631 -61.7936 147° Southeast  Level FlightAware Approximate
01:15PM -0.4731 -61.7222 147° Southeast  Level FlightAware Approximate
01:16PM -0.5831 -61.6508 147° Southeast  Level FlightAware Approximate
01:17PM -0.6931 -61.5793 147° Southeast  Level FlightAware Approximate
01:18PM -0.8030 -61.5079 147° Southeast  Level FlightAware Approximate
01:19PM -0.9130 -61.4365 147° Southeast  Level FlightAware Approximate
01:19PM -1.3510 -61.4210 147° Southeast 452 520 36,700  Level FlightAware
01:20PM -1.0230 -61.3650 147° Southeast  Level FlightAware Approximate
01:20PM -1.4070 -61.3790 143° Southeast 446 513 35,500  Level FlightAware
01:21PM -1.4690 -61.3310 142° Southeast 442 509 34,200 -2,100 Descending FlightAware
01:21PM -1.5210 -61.2910 142° Southeast 436 502 33,100 -2,040 Descending FlightAware
01:22PM -1.5720 -61.2520 143° Southeast 431 496 32,000 -2,040 Descending FlightAware
01:22PM -1.6350 -61.2040 143° Southeast 425 489 30,700 -1,980 Descending FlightAware
01:23PM -1.6880 -61.1640 143° Southeast 420 483 29,600 -960 Descending FlightAware
01:24PM -1.7360 -61.1260 142° Southeast 420 483 29,600 -2,040 Level FlightAware
01:24PM -1.7970 -61.0800 143° Southeast 414 476 27,200 -3,240 Descending FlightAware
01:25PM -1.8470 -61.0420 143° Southeast 414 476 26,000 -2,220 Descending FlightAware
01:25PM -1.8990 -61.0020 142° Southeast 409 471 24,800 -2,100 Descending FlightAware
01:26PM -1.9520 -60.9610 142° Southeast 406 467 23,600 -2,040 Descending FlightAware
01:26PM -2.0030 -60.9210 142° Southeast 403 464 22,400 -2,280 Descending FlightAware
01:27PM -2.0590 -60.8850 147° Southeast 405 466 21,000 -2,280 Descending FlightAware
01:28PM -2.1180 -60.8500 149° Southeast 401 461 19,700 -1,920 Descending FlightAware
01:28PM -2.1720 -60.8160 148° Southeast 392 451 18,700 -1,980 Descending FlightAware
01:29PM -2.2200 -60.7850 147° Southeast 388 447 17,600 -1,860 Descending FlightAware
01:29PM -2.2750 -60.7480 146° Southeast 379 436 16,600 -1,800 Descending FlightAware
01:30PM -2.3280 -60.7140 147° Southeast 375 432 15,400 -1,980 Descending FlightAware
01:30PM -2.3750 -60.6780 143° Southeast 371 427 14,300 -1,860 Descending FlightAware
01:31PM -2.4250 -60.6370 141° Southeast 367 422 13,200 -1,740 Descending FlightAware
01:32PM -2.4670 -60.6030 141° Southeast 363 418 12,300 -1,560 Descending FlightAware
01:32PM -2.5060 -60.5740 143° Southeast 354 407 11,600 -660 Descending FlightAware
01:33PM -2.5540 -60.5360 142° Southeast 354 407 11,500 -1,380 Descending FlightAware
01:33PM -2.5740 -60.5030 121° Southeast 333 383 10,200 -2,760 Descending FlightAware
01:34PM -2.5830 -60.4700 105° East 323 372 9,800 -780 Descending FlightAware
01:34PM -2.5920 -60.4450 110° East 309 356 9,700 -480 Descending FlightAware
01:34PM -2.6040 -60.4210 117° Southeast 298 343 9,500 -1,080 Descending FlightAware
01:35PM -2.6210 -60.3890 118° Southeast 294 338 8,900 -1,380 Descending FlightAware
01:35PM -2.6280 -60.3750 117° Southeast 293 337 8,600 -1,080 Descending FlightAware
01:35PM -2.6420 -60.3490 118° Southeast 285 328 8,300 -1,020 Descending FlightAware
01:36PM -2.6570 -60.3230 120° Southeast 278 320 7,900 -1,200 Descending FlightAware
01:36PM -2.6680 -60.3040 120° Southeast 274 315 7,500 -1,440 Descending FlightAware
01:36PM -2.6810 -60.2820 121° Southeast 274 315 7,000 -1,260 Descending FlightAware
01:37PM -2.6940 -60.2570 118° Southeast 271 312 6,600 -1,200 Descending FlightAware
01:37PM -2.7070 -60.2320 118° Southeast 268 308 6,100 -1,320 Descending FlightAware
01:37PM -2.7160 -60.2150 118° Southeast 268 308 5,800 -1,200 Descending FlightAware
01:38PM -2.7310 -60.1870 118° Southeast 267 307 5,300 -1,020 Descending FlightAware
01:38PM -2.7410 -60.1670 117° Southeast 260 299 5,100 -480 Descending FlightAware
01:38PM -2.7490 -60.1440 109° East 257 296 5,000 -180 Descending FlightAware
01:39PM -2.7580 -60.1150 107° East 247 284 5,000 -180 Level FlightAware
01:39PM -2.7660 -60.0980 115° Southeast 233 268 4,900 -480 Descending FlightAware
01:39PM -2.7770 -60.0760 117° Southeast 225 259 4,700 120 Descending FlightAware
01:40PM -2.7870 -60.0560 117° Southeast 230 265 5,000 540 Climbing FlightAware
01:40PM -2.7970 -60.0360 117° Southeast 227 261 5,100  Climbing FlightAware
01:40PM -2.8090 -60.0160 121° Southeast 224 258 5,000 -180 Descending FlightAware
01:41PM -2.8180 -60.0010 121° Southeast 223 257 5,000  Level FlightAware
01:41PM -2.8300 -59.9780 118° Southeast 222 255 5,000  Level FlightAware
01:41PM -2.8380 -59.9620 117° Southeast 227 261 5,000  Level FlightAware
01:42PM -2.8510 -59.9390 120° Southeast 226 260 5,000 -180 Level FlightAware
01:42PM -2.8600 -59.9200 115° Southeast 230 265 4,900 120 Descending FlightAware
01:42PM -2.8700 -59.9010 118° Southeast 226 260 5,100 420 Climbing FlightAware
01:43PM -2.8760 -59.8940 131° Southeast 231 266 5,100 -420 Level FlightAware
01:43PM -2.8820 -59.8890 140° Southeast 235 270 5,000 -1,200 Descending FlightAware
01:43PM -2.8920 -59.8810 141° Southeast 239 275 4,700 -1,320 Descending FlightAware
01:43PM -2.9130 -59.8700 152° Southeast 236 272 4,300 -1,080 Descending FlightAware
01:44PM -2.9320 -59.8610 155° Southeast 230 265 4,000 -900 Descending FlightAware
01:44PM -2.9530 -59.8530 159° South 225 259 3,700 -1,140 Descending FlightAware
01:44PM -2.9750 -59.8430 156° South 226 260 3,200 -1,200 Descending FlightAware
01:45PM -2.9920 -59.8350 155° Southeast 224 258 2,900 -900 Descending FlightAware
01:45PM -3.0000 -59.8330 166° South 216 249 2,800 -540 Descending FlightAware
01:45PM -3.0270 -59.8370 188° South 230 265 2,600 -540 Descending FlightAware
01:45PM -3.0360 -59.8440 218° Southwest 224 258 2,500 -360 Descending FlightAware
01:46PM -3.0420 -59.8500 225° Southwest 222 255 2,500 -240 Level FlightAware
01:46PM -3.0500 -59.8630 238° Southwest 211 243 2,400 -480 Descending FlightAware
01:46PM -3.0520 -59.8730 259° West 204 235 2,300 -420 Descending FlightAware
01:46PM -3.0520 -59.8800 270° West 209 241 2,300 -300 Level FlightAware
01:46PM -3.0490 -59.8960 281° West 216 249 2,200 -480 Descending FlightAware
01:47PM -3.0430 -59.9190 285° West 210 242 2,000 -300 Descending FlightAware
01:47PM -3.0400 -59.9390 279° West 191 220 2,000 -180 Level FlightAware
01:47PM -3.0390 -59.9560 273° West 180 207 1,900 -720 Descending FlightAware
01:48PM -3.0390 -59.9740 270° West 173 199 1,500 -960 Descending FlightAware
01:48PM -3.0390 -59.9910 270° West 166 191 1,200 -780 Descending FlightAware
01:49PM -3.0390 -60.0070 270° West 159 183 1,000 -780 Descending FlightAware
01:49PM -3.0390 -60.0210 270° West 159 183 700 -420 Descending FlightAware
01:50PM -3.0390 -60.0460 270° West 156 180 600 -180 Descending FlightAware
01:52PM -3.0386 -60.0497 153° Southeast  Level Estimated
01:53PM -3.0386 -60.0497 153° Southeast  Level Estimated